Time;durP1;ratioP1;P1;durP2;ratioP2;P2;SDS_P1;SDS_P2;PMS_P1;PMS_P2;Temp;Humidity;BMP_temperature;BMP_pressure;BME280_temperature;BME280_humidity;BME280_pressure;Samples;Min_cycle;Max_cycle;Signal;HPM_P1;HPM_P2
2023/01/16 00:01:57;;;;;;;2.03;1.92;;;;;;;8.96;65.80;99261.34;4414115;32;34492;-82
2023/01/16 00:04:25;;;;;;;6.25;5.35;;;;;;;8.98;65.78;99256.88;4414705;32;33423;-82
2023/01/16 00:06:53;;;;;;;2.22;2.10;;;;;;;8.85;66.32;99253.09;4404563;32;33618;-82
2023/01/16 00:09:21;;;;;;;1.70;1.60;;;;;;;8.77;66.79;99252.56;4410940;32;33511;-82
2023/01/16 00:11:49;;;;;;;3.40;2.65;;;;;;;8.74;67.02;99263.25;4408882;32;34808;-82
2023/01/16 00:14:16;;;;;;;3.20;2.75;;;;;;;8.91;66.52;99258.06;4398776;32;34016;-82
2023/01/16 00:16:44;;;;;;;1.42;1.02;;;;;;;8.76;66.69;99250.88;4404380;32;33260;-82
2023/01/16 00:19:12;;;;;;;1.12;1.12;;;;;;;8.96;66.62;99242.06;4415106;32;33889;-82
2023/01/16 00:21:39;;;;;;;5.93;1.85;;;;;;;8.91;66.76;99239.66;4409154;32;33855;-83
2023/01/16 00:24:07;;;;;;;3.95;2.85;;;;;;;8.94;66.77;99239.50;4412169;32;33461;-82
2023/01/16 00:26:35;;;;;;;4.87;1.85;;;;;;;8.92;66.99;99230.81;4404279;32;32463;-81
2023/01/16 00:29:03;;;;;;;1.25;1.15;;;;;;;8.91;66.83;99226.47;4396123;32;33569;-82
2023/01/16 00:31:31;;;;;;;1.95;1.55;;;;;;;9.03;66.67;99232.13;4410345;32;32519;-82
2023/01/16 00:33:59;;;;;;;4.12;2.83;;;;;;;8.97;66.82;99228.84;4393697;32;31259;-81
2023/01/16 00:36:26;;;;;;;2.00;1.05;;;;;;;9.04;66.69;99228.56;4396542;32;33124;-81
2023/01/16 00:38:56;;;;;;;0.28;0.28;;;;;;;9.17;66.29;99229.69;4402693;32;34350;-83
2023/01/16 00:41:24;;;;;;;1.70;1.60;;;;;;;9.14;66.26;99221.94;4406004;32;32894;-83
2023/01/16 00:43:52;;;;;;;1.30;1.20;;;;;;;9.08;66.54;99214.31;4408346;32;32316;-82
2023/01/16 00:46:19;;;;;;;5.78;1.10;;;;;;;9.21;66.00;99204.94;4418685;32;33631;-83
2023/01/16 00:48:47;;;;;;;1.75;1.65;;;;;;;9.20;66.09;99208.47;4398332;32;34679;-83
2023/01/16 00:51:14;;;;;;;0.62;0.62;;;;;;;9.20;66.27;99213.72;4403670;32;33826;-83
2023/01/16 00:53:42;;;;;;;2.08;1.87;;;;;;;9.12;66.29;99221.16;4392626;32;31719;-82
2023/01/16 00:56:10;;;;;;;1.30;1.20;;;;;;;9.06;66.65;99216.16;4407635;32;33779;-82
2023/01/16 00:58:37;;;;;;;1.87;1.77;;;;;;;9.01;66.84;99221.63;4399776;32;33990;-82
2023/01/16 01:01:05;;;;;;;0.52;0.52;;;;;;;9.19;66.04;99220.78;4412270;32;33890;-82
2023/01/16 01:03:33;;;;;;;4.20;2.25;;;;;;;9.22;66.14;99218.00;4384508;32;32004;-82
2023/01/16 01:06:05;;;;;;;1.27;0.57;;;;;;;9.22;66.02;99219.81;4419957;32;33488;-82
2023/01/16 01:08:33;;;;;;;1.87;1.70;;;;;;;9.12;66.32;99205.38;4396079;32;32111;-82
2023/01/16 01:11:13;;;;;;;1.50;1.27;;;;;;;9.05;66.63;99211.81;4399477;32;33049;-83
2023/01/16 01:13:43;;;;;;;0.75;0.75;;;;;;;9.06;66.39;99205.63;4408609;32;34948;-83
2023/01/16 01:16:11;;;;;;;0.65;0.65;;;;;;;8.95;67.00;99208.78;4398695;32;33445;-83
2023/01/16 01:18:39;;;;;;;1.95;1.75;;;;;;;9.12;66.41;99205.38;4392894;32;33570;-83
2023/01/16 01:21:08;;;;;;;0.77;0.77;;;;;;;9.17;66.09;99203.38;4396252;32;33369;-83
2023/01/16 01:23:35;;;;;;;2.08;1.87;;;;;;;9.15;66.15;99199.94;4394006;32;32706;-83
2023/01/16 01:26:08;;;;;;;0.93;0.93;;;;;;;9.36;65.41;99188.38;4405622;32;32867;-84
2023/01/16 01:28:38;;;;;;;1.45;1.35;;;;;;;9.38;65.13;99185.66;4399000;32;33258;-84
2023/01/16 01:31:07;;;;;;;3.00;1.52;;;;;;;9.24;65.66;99181.06;4397441;32;31797;-84
2023/01/16 01:33:34;;;;;;;1.27;1.17;;;;;;;9.07;66.16;99196.78;4394473;32;32854;-84
2023/01/16 01:36:04;;;;;;;1.77;1.67;;;;;;;9.10;66.05;99191.41;4389736;32;33197;-84
2023/01/16 01:38:32;;;;;;;0.57;0.57;;;;;;;9.15;65.93;99184.97;4403877;32;33673;-84
2023/01/16 01:41:01;;;;;;;6.50;2.00;;;;;;;9.21;65.63;99186.50;4389316;32;33717;-84
2023/01/16 01:44:01;;;;;;;6.47;3.33;;;;;;;8.94;66.39;99207.91;4392560;32;32429;-84
2023/01/16 01:46:35;;;;;;;0.88;0.88;;;;;;;9.07;66.08;99207.31;4386218;32;33348;-84
2023/01/16 01:49:20;;;;;;;0.47;0.30;;;;;;;8.91;66.57;99213.31;4420006;32;34500;-84
2023/01/16 01:51:48;;;;;;;3.40;2.42;;;;;;;8.94;66.35;99214.97;4387726;32;32007;-84
2023/01/16 01:54:24;;;;;;;2.05;1.37;;;;;;;8.94;66.35;99213.19;4383275;32;32099;-84
2023/01/16 01:56:56;;;;;;;2.20;2.10;;;;;;;8.87;66.67;99206.47;4378297;32;32948;-84
2023/01/16 01:59:27;;;;;;;;;;;;;;;8.98;66.57;99195.47;4400215;32;34422;-84
2023/01/16 02:01:55;;;;;;;1.40;1.30;;;;;;;9.03;66.33;99197.88;4397575;32;34892;-85
2023/01/16 02:04:26;;;;;;;1.80;1.35;;;;;;;9.03;66.14;99190.84;4387091;32;31727;-84
2023/01/16 02:06:56;;;;;;;4.07;2.97;;;;;;;9.11;65.96;99198.38;4397259;32;33799;-85
2023/01/16 02:09:25;;;;;;;2.15;1.00;;;;;;;9.09;66.00;99190.53;4398260;32;34660;-84
2023/01/16 02:12:00;;;;;;;2.45;2.25;;;;;;;9.09;65.85;99194.97;4396000;32;34209;-84
2023/01/16 02:14:32;;;;;;;0.32;0.32;;;;;;;9.07;66.00;99176.59;4399487;32;33480;-84
2023/01/16 02:20:06;;;;;;;1.55;0.85;;;;;;;9.22;65.67;99164.47;4389423;32;33296;-84
2023/01/16 02:23:01;;;;;;;2.08;1.98;;;;;;;9.19;65.55;99160.19;4386924;32;33150;-82
2023/01/16 02:25:43;;;;;;;3.35;1.95;;;;;;;9.38;64.90;99151.41;4401425;32;34081;-82
2023/01/16 02:28:23;;;;;;;0.95;0.80;;;;;;;9.33;65.03;99149.00;4388644;32;32758;-83
2023/01/16 02:31:29;;;;;;;5.03;0.68;;;;;;;9.17;65.69;99137.50;4404137;32;34600;-83
2023/01/16 02:34:01;;;;;;;1.10;1.05;;;;;;;9.17;65.73;99135.72;4412434;32;34550;-83
2023/01/16 02:36:40;;;;;;;2.58;2.37;;;;;;;9.03;66.08;99129.44;4396587;32;34006;-83
2023/01/16 02:39:40;;;;;;;2.35;2.20;;;;;;;9.02;66.33;99119.78;4392539;32;33708;-83
2023/01/16 02:42:28;;;;;;;0.98;0.98;;;;;;;9.35;65.19;99112.91;4392192;32;32959;-83
2023/01/16 02:45:07;;;;;;;0.98;0.98;;;;;;;8.97;66.11;99112.13;4390417;32;33893;-82
2023/01/16 02:47:47;;;;;;;2.35;1.55;;;;;;;9.03;66.26;99121.53;4391968;32;32342;-82
2023/01/16 02:50:29;;;;;;;1.85;1.48;;;;;;;8.92;66.26;99114.97;4404179;32;33762;-83
2023/01/16 02:53:29;;;;;;;4.35;2.22;;;;;;;8.86;66.52;99115.28;4398522;32;34676;-82
2023/01/16 02:56:02;;;;;;;5.87;2.62;;;;;;;8.92;66.77;99120.22;4413576;32;34746;-82
2023/01/16 02:58:32;;;;;;;1.10;1.10;;;;;;;8.96;66.43;99116.53;4402850;32;32700;-82
2023/01/16 03:01:00;;;;;;;1.80;1.40;;;;;;;8.95;66.44;99111.34;4399802;32;33371;-82
2023/01/16 03:03:38;;;;;;;1.87;1.77;;;;;;;8.94;66.48;99099.13;4414125;32;32786;-83
2023/01/16 03:06:26;;;;;;;0.50;0.50;;;;;;;8.98;66.35;99098.03;4407623;32;33368;-83
2023/01/16 03:09:13;;;;;;;1.67;1.58;;;;;;;9.08;65.81;99080.03;4402661;32;32887;-84
2023/01/16 03:11:58;;;;;;;1.58;1.48;;;;;;;9.01;66.05;99082.06;4402786;32;32700;-84
2023/01/16 03:14:40;;;;;;;1.58;1.50;;;;;;;8.90;66.19;99085.25;4401894;32;34493;-83
2023/01/16 03:17:21;;;;;;;0.90;0.90;;;;;;;8.88;66.18;99078.34;4406339;32;33646;-83
2023/01/16 03:20:07;;;;;;;1.08;1.08;;;;;;;8.82;66.18;99076.84;4402173;32;34156;-82
2023/01/16 03:22:56;;;;;;;1.20;1.15;;;;;;;8.84;66.28;99067.12;4400800;32;33525;-81
2023/01/16 03:25:32;;;;;;;4.72;3.05;;;;;;;8.95;65.67;99067.44;4405338;32;33918;-82
2023/01/16 03:28:07;;;;;;;1.10;1.10;;;;;;;8.87;66.13;99071.37;4401502;32;32264;-83
2023/01/16 03:30:44;;;;;;;1.45;1.35;;;;;;;8.94;65.93;99065.75;4400417;32;31877;-83
2023/01/16 03:33:43;;;;;;;2.53;2.33;;;;;;;8.87;66.04;99064.31;4416628;32;33703;-83
2023/01/16 03:36:15;;;;;;;3.47;2.67;;;;;;;9.06;65.45;99051.09;4400109;32;33684;-83
2023/01/16 03:38:44;;;;;;;1.00;1.00;;;;;;;8.85;66.07;99055.66;4400803;32;34124;-83
2023/01/16 03:41:15;;;;;;;0.80;0.80;;;;;;;8.83;66.01;99047.00;4404833;32;34269;-83
2023/01/16 03:43:45;;;;;;;1.48;1.40;;;;;;;8.87;65.82;99051.16;4394895;32;33367;-83
2023/01/16 03:46:16;;;;;;;2.10;1.95;;;;;;;8.87;65.90;99045.03;4415194;32;34651;-83
2023/01/16 03:48:47;;;;;;;1.58;1.48;;;;;;;8.86;65.86;99038.06;4401899;32;32448;-83
2023/01/16 03:51:19;;;;;;;2.08;1.65;;;;;;;8.83;65.77;99030.31;4422097;32;32888;-83
2023/01/16 03:53:56;;;;;;;1.10;1.10;;;;;;;8.86;65.76;99023.13;4390495;32;32980;-82
2023/01/16 03:56:29;;;;;;;3.25;2.47;;;;;;;8.85;65.70;99018.78;4403237;32;32598;-81
2023/01/16 03:58:57;;;;;;;1.40;1.30;;;;;;;8.67;65.94;99020.53;4403093;32;34624;-83
2023/01/16 04:01:31;;;;;;;2.08;1.98;;;;;;;8.70;65.81;99014.28;4402752;32;33184;-83
2023/01/16 04:04:37;;;;;;;9.75;2.67;;;;;;;8.46;66.65;99017.16;4405251;32;34555;-83
2023/01/16 04:07:09;;;;;;;2.53;1.95;;;;;;;8.69;66.12;99012.59;4381565;32;33094;-83
2023/01/16 04:09:42;;;;;;;;;;;;;;;8.73;65.96;99014.12;4404917;32;33266;-83
2023/01/16 04:12:12;;;;;;;3.20;2.90;;;;;;;8.76;65.62;99008.72;4402268;32;33091;-83
2023/01/16 04:14:40;;;;;;;1.40;1.30;;;;;;;8.61;66.01;99004.22;4415022;32;33892;-83
2023/01/16 04:17:08;;;;;;;5.57;4.15;;;;;;;8.62;66.21;99000.63;4390809;32;33944;-83
2023/01/16 04:19:36;;;;;;;0.77;0.77;;;;;;;8.61;66.20;98989.25;4404638;32;32864;-83
2023/01/16 04:22:07;;;;;;;0.62;0.62;;;;;;;8.76;65.71;98979.75;4409971;32;34242;-83
2023/01/16 04:24:35;;;;;;;1.95;1.83;;;;;;;8.72;65.58;98975.56;4404306;32;32847;-83
2023/01/16 04:27:02;;;;;;;1.90;1.80;;;;;;;8.70;65.88;98977.44;4401711;32;33329;-83
2023/01/16 04:29:30;;;;;;;1.75;1.62;;;;;;;8.68;65.94;98974.00;4390473;32;33281;-83
2023/01/16 04:31:58;;;;;;;4.85;2.53;;;;;;;8.70;65.65;98966.91;4402458;32;33898;-83
2023/01/16 04:34:25;;;;;;;1.75;1.52;;;;;;;8.72;65.60;98967.69;4422855;32;33418;-82
2023/01/16 04:36:53;;;;;;;1.08;1.08;;;;;;;8.65;65.71;98966.28;4401288;32;33597;-82
2023/01/16 04:39:21;;;;;;;1.65;1.55;;;;;;;8.49;65.92;98967.94;4403605;32;33748;-82
2023/01/16 04:41:50;;;;;;;1.77;1.27;;;;;;;8.44;66.19;98961.12;4401564;32;31525;-82
2023/01/16 04:44:18;;;;;;;2.53;2.30;;;;;;;8.55;66.08;98955.38;4388966;32;32953;-82
2023/01/16 04:46:45;;;;;;;0.73;0.73;;;;;;;8.55;66.07;98947.47;4402599;32;33942;-82
2023/01/16 04:49:13;;;;;;;1.73;1.37;;;;;;;8.60;66.08;98956.00;4402419;32;32670;-82
2023/01/16 04:51:41;;;;;;;1.77;1.52;;;;;;;9.05;64.23;98951.13;4405473;32;34673;-82
2023/01/16 04:54:14;;;;;;;1.42;1.42;;;;;;;9.03;63.75;98943.31;4404550;32;32292;-82
2023/01/16 04:56:42;;;;;;;0.95;0.95;;;;;;;8.79;64.58;98937.50;4385820;32;32779;-82
2023/01/16 04:59:10;;;;;;;1.73;1.62;;;;;;;8.80;64.52;98931.31;4403203;32;32787;-82
2023/01/16 05:01:37;;;;;;;0.75;0.75;;;;;;;8.57;65.27;98935.06;4413919;32;32959;-82
2023/01/16 05:04:07;;;;;;;2.17;1.80;;;;;;;8.44;65.86;98939.22;4388742;32;32735;-83
2023/01/16 05:06:35;;;;;;;3.87;2.50;;;;;;;8.43;65.79;98933.13;4402030;32;34685;-83
2023/01/16 05:09:04;;;;;;;1.90;1.62;;;;;;;8.43;65.89;98927.84;4413496;32;33928;-83
2023/01/16 05:11:33;;;;;;;5.45;3.60;;;;;;;8.43;65.94;98925.22;4403818;32;32557;-83
2023/01/16 05:14:01;;;;;;;1.50;1.48;;;;;;;8.37;66.08;98917.66;4403359;32;33137;-82
2023/01/16 05:16:29;;;;;;;1.85;1.75;;;;;;;8.44;66.10;98912.91;4388274;32;33434;-82
2023/01/16 05:18:57;;;;;;;2.72;2.53;;;;;;;8.45;65.97;98912.00;4396217;32;32815;-82
2023/01/16 05:21:25;;;;;;;1.52;1.30;;;;;;;8.39;66.07;98931.56;4415579;32;34411;-82
2023/01/16 05:23:52;;;;;;;9.90;3.72;;;;;;;8.48;65.91;98918.91;4402127;32;32766;-82
2023/01/16 05:26:20;;;;;;;2.08;1.58;;;;;;;8.43;65.94;98914.69;4389129;32;33820;-82
2023/01/16 05:28:47;;;;;;;4.47;2.20;;;;;;;8.45;65.63;98912.88;4422478;32;33847;-82
2023/01/16 05:31:15;;;;;;;3.00;2.03;;;;;;;8.37;66.16;98915.00;4399687;32;32748;-82
2023/01/16 05:33:43;;;;;;;2.65;2.45;;;;;;;8.49;65.93;98905.66;4400459;32;34102;-82
2023/01/16 05:36:11;;;;;;;0.70;0.70;;;;;;;8.49;65.82;98910.06;4403071;32;33956;-82
2023/01/16 05:38:38;;;;;;;3.55;2.87;;;;;;;8.45;65.84;98920.75;4399475;32;33387;-82
2023/01/16 05:41:06;;;;;;;2.95;2.70;;;;;;;8.42;65.83;98913.00;4404390;32;32438;-83
2023/01/16 05:43:34;;;;;;;2.60;2.40;;;;;;;8.38;65.86;98908.81;4393228;32;33282;-83
2023/01/16 05:46:02;;;;;;;2.60;1.27;;;;;;;8.42;65.81;98913.00;4393952;32;33794;-83
2023/01/16 05:48:32;;;;;;;4.87;2.12;;;;;;;8.42;66.03;98910.37;4400119;32;33645;-83
2023/01/16 05:51:03;;;;;;;1.52;1.42;;;;;;;8.49;65.87;98907.44;4402271;32;33757;-83
2023/01/16 05:53:31;;;;;;;2.95;2.58;;;;;;;8.57;65.64;98911.41;4394483;32;33765;-83
2023/01/16 05:56:06;;;;;;;4.82;3.70;;;;;;;8.62;65.52;98916.44;4404790;32;33722;-83
2023/01/16 05:58:34;;;;;;;6.43;2.17;;;;;;;8.44;66.04;98913.78;4392671;32;32276;-83
2023/01/16 06:01:01;;;;;;;4.07;3.72;;;;;;;8.57;65.63;98913.19;4405601;32;31374;-83
2023/01/16 06:03:29;;;;;;;0.98;0.95;;;;;;;8.69;64.85;98917.84;4399027;32;34434;-83
2023/01/16 06:05:58;;;;;;;5.28;2.58;;;;;;;8.79;64.37;98913.81;4382999;32;32881;-83
2023/01/16 06:08:26;;;;;;;2.67;2.05;;;;;;;8.70;64.44;98901.13;4383950;32;33468;-83
2023/01/16 06:10:56;;;;;;;1.30;0.80;;;;;;;8.55;64.81;98905.38;4407196;32;32658;-83
2023/01/16 06:13:23;;;;;;;1.05;1.05;;;;;;;8.48;65.40;98908.38;4382616;32;32423;-84
2023/01/16 06:15:51;;;;;;;2.72;2.40;;;;;;;8.34;66.04;98912.50;4398849;32;33009;-84
2023/01/16 06:18:19;;;;;;;2.45;2.25;;;;;;;8.38;65.67;98906.19;4402552;32;33228;-84
2023/01/16 06:20:46;;;;;;;3.03;2.80;;;;;;;8.31;65.86;98907.41;4383057;32;32047;-83
2023/01/16 06:23:14;;;;;;;1.42;1.33;;;;;;;8.37;65.81;98901.88;4388918;32;32822;-83
2023/01/16 06:25:42;;;;;;;1.10;1.02;;;;;;;8.31;65.73;98907.41;4399306;32;32636;-84
2023/01/16 06:28:09;;;;;;;0.98;0.98;;;;;;;8.19;66.05;98898.31;4383338;32;33052;-83
2023/01/16 06:30:37;;;;;;;2.87;2.67;;;;;;;8.26;66.06;98879.59;4418153;32;33250;-83
2023/01/16 06:33:05;;;;;;;2.00;1.87;;;;;;;8.41;65.65;98884.16;4403508;32;33793;-83
2023/01/16 06:35:33;;;;;;;1.50;1.40;;;;;;;8.37;65.76;98886.09;4400972;32;33597;-84
2023/01/16 06:38:01;;;;;;;2.05;1.95;;;;;;;8.34;65.92;98886.19;4407053;32;32737;-84
2023/01/16 06:40:29;;;;;;;5.05;0.98;;;;;;;8.28;66.14;98875.97;4412881;32;34198;-84
2023/01/16 06:42:56;;;;;;;2.08;1.90;;;;;;;8.42;65.81;98885.84;4412442;32;34196;-84
2023/01/16 06:45:24;;;;;;;0.75;0.73;;;;;;;8.45;65.62;98889.19;4412760;32;34096;-84
2023/01/16 06:47:52;;;;;;;1.62;1.52;;;;;;;8.43;65.72;98885.75;4400758;32;32310;-83
2023/01/16 06:50:20;;;;;;;1.73;0.82;;;;;;;8.44;65.81;98871.69;4397349;32;31684;-84
2023/01/16 06:52:48;;;;;;;1.67;1.55;;;;;;;8.45;65.67;98872.53;4406978;32;33045;-84
2023/01/16 06:55:16;;;;;;;5.95;2.78;;;;;;;8.45;65.79;98883.94;4401998;32;32671;-85
2023/01/16 06:57:45;;;;;;;1.58;1.48;;;;;;;8.44;65.81;98882.19;4404181;32;33469;-86
2023/01/16 07:00:13;;;;;;;2.30;1.65;;;;;;;8.44;65.87;98887.47;4388431;32;32719;-85
2023/01/16 07:02:41;;;;;;;1.60;1.50;;;;;;;8.76;64.63;98885.00;4404659;32;32223;-85
2023/01/16 07:05:10;;;;;;;1.80;1.60;;;;;;;8.56;65.06;98879.91;4403511;32;32158;-85
2023/01/16 07:07:38;;;;;;;1.77;1.17;;;;;;;8.42;65.54;98881.44;4399658;32;33793;-85
2023/01/16 07:10:06;;;;;;;3.28;2.78;;;;;;;8.38;66.14;98893.03;4406760;32;32703;-85
2023/01/16 07:12:33;;;;;;;1.70;1.60;;;;;;;8.44;65.86;98902.41;4392309;32;32583;-85
2023/01/16 07:23:27;;;;;;;4.20;2.92;;;;;;;8.57;66.43;98885.09;4403173;32;32568;-85
2023/01/16 07:25:56;;;;;;;1.55;1.45;;;;;;;8.53;66.92;98880.06;4409099;32;32196;-85
2023/01/16 07:28:24;;;;;;;3.90;2.25;;;;;;;8.49;66.94;98878.50;4403411;32;33850;-83
2023/01/16 07:30:51;;;;;;;1.25;1.15;;;;;;;8.29;67.86;98876.81;4386370;32;31904;-84
2023/01/16 07:33:20;;;;;;;3.83;3.58;;;;;;;8.37;67.70;98885.22;4396152;32;32942;-83
2023/01/16 07:35:48;;;;;;;2.50;2.33;;;;;;;8.65;66.66;98874.19;4397535;32;32818;-84
2023/01/16 07:38:15;;;;;;;5.40;4.12;;;;;;;8.82;66.28;98866.25;4392525;32;32766;-84
2023/01/16 07:40:43;;;;;;;7.95;2.80;;;;;;;8.97;65.60;98856.72;4402955;32;33654;-84
2023/01/16 07:43:11;;;;;;;2.80;2.60;;;;;;;9.06;65.26;98843.06;4399292;32;33269;-84
2023/01/16 07:45:38;;;;;;;1.37;1.27;;;;;;;8.58;67.06;98843.84;4404498;32;31647;-84
2023/01/16 07:48:06;;;;;;;5.35;3.40;;;;;;;8.42;67.68;98841.97;4404344;32;33245;-84
2023/01/16 07:50:34;;;;;;;4.78;3.50;;;;;;;8.11;68.52;98826.81;4405611;32;33369;-84
2023/01/16 07:53:01;;;;;;;4.93;2.78;;;;;;;8.42;67.64;98825.34;4392985;32;31804;-84
2023/01/16 07:55:29;;;;;;;3.47;3.17;;;;;;;8.41;67.76;98826.28;4395135;32;33512;-84
2023/01/16 07:57:56;;;;;;;1.60;1.05;;;;;;;8.27;68.28;98826.09;4406494;32;31471;-84
2023/01/16 08:00:24;;;;;;;3.12;1.85;;;;;;;8.20;68.67;98817.63;4399847;32;32574;-84
2023/01/16 08:02:53;;;;;;;1.90;1.77;;;;;;;8.35;68.17;98808.97;4399436;32;33950;-84
2023/01/16 08:05:20;;;;;;;3.05;2.85;;;;;;;8.28;68.22;98801.50;4408681;32;33000;-84
2023/01/16 08:07:49;;;;;;;2.92;2.22;;;;;;;8.39;67.93;98792.16;4398564;32;33555;-84
2023/01/16 08:10:17;;;;;;;4.18;2.30;;;;;;;8.37;68.31;98791.38;4396077;32;32475;-84
2023/01/16 08:12:44;;;;;;;4.00;2.30;;;;;;;8.39;68.43;98784.25;4403271;32;34046;-84
2023/01/16 08:15:14;;;;;;;3.90;3.08;;;;;;;8.50;68.33;98782.84;4403763;32;32885;-84
2023/01/16 08:17:43;;;;;;;3.78;2.55;;;;;;;8.40;68.87;98775.47;4391026;32;32829;-84
2023/01/16 08:20:11;;;;;;;2.62;2.47;;;;;;;8.74;67.70;98767.59;4415446;32;33525;-84
2023/01/16 08:22:43;;;;;;;4.70;3.42;;;;;;;8.56;68.64;98764.97;4402966;32;32307;-84
2023/01/16 08:25:12;;;;;;;3.28;2.12;;;;;;;8.44;68.99;98761.19;4401713;32;33122;-84
2023/01/16 08:27:41;;;;;;;7.70;4.05;;;;;;;8.63;68.56;98765.50;4408760;32;33577;-84
2023/01/16 08:30:09;;;;;;;3.25;2.55;;;;;;;8.67;68.51;98751.25;4415247;32;32641;-84
2023/01/16 08:32:37;;;;;;;3.58;2.85;;;;;;;8.82;67.81;98755.69;4417361;32;34135;-84
2023/01/16 08:35:06;;;;;;;1.45;1.42;;;;;;;8.98;66.56;98743.44;4401259;32;34494;-84
2023/01/16 08:37:33;;;;;;;4.18;1.95;;;;;;;8.34;68.09;98733.63;4404769;32;34046;-84
2023/01/16 08:40:03;;;;;;;1.73;1.62;;;;;;;8.74;66.11;98731.59;4408923;32;33943;-85
2023/01/16 08:53:37;;;;;;;3.75;2.40;;;;;;;7.89;69.59;98713.16;4403780;32;33687;-84
2023/01/16 08:56:05;;;;;;;1.70;0.77;;;;;;;7.78;69.98;98703.16;4395278;32;33700;-84
2023/01/16 08:58:33;;;;;;;4.18;1.92;;;;;;;8.05;68.92;98692.22;4389418;32;34589;-84
2023/01/16 09:01:00;;;;;;;0.68;0.57;;;;;;;7.79;69.78;98685.66;4389513;32;31964;-84
2023/01/16 09:03:29;;;;;;;2.40;2.20;;;;;;;7.57;70.74;98696.38;4381133;32;36399;-84
2023/01/16 09:05:57;;;;;;;3.03;2.83;;;;;;;7.16;71.95;98683.44;4377403;32;34181;-84
2023/01/16 09:08:25;;;;;;;1.70;1.35;;;;;;;7.48;70.88;98679.28;4389403;32;32853;-84
2023/01/16 09:13:48;;;;;;;3.83;2.00;;;;;;;7.34;71.02;98664.19;4389082;32;34787;-85
2023/01/16 09:16:18;;;;;;;6.70;2.47;;;;;;;7.73;69.70;98654.41;4389992;32;33543;-85
2023/01/16 09:18:46;;;;;;;2.47;2.37;;;;;;;7.54;70.56;98646.59;4369109;32;32747;-85
2023/01/16 09:21:14;;;;;;;3.10;2.90;;;;;;;7.80;69.54;98637.44;4387306;32;32112;-85
2023/01/16 09:23:42;;;;;;;3.60;1.15;;;;;;;7.64;70.17;98632.06;4375532;32;33869;-85
2023/01/16 09:26:09;;;;;;;2.10;0.70;;;;;;;7.57;70.09;98630.69;4389454;32;33312;-85
2023/01/16 09:28:37;;;;;;;1.33;1.23;;;;;;;7.23;71.35;98626.25;4388732;32;34080;-85
2023/01/16 09:31:05;;;;;;;1.00;1.00;;;;;;;7.44;70.71;98620.78;4374004;32;32469;-85
2023/01/16 09:33:33;;;;;;;1.48;1.20;;;;;;;7.52;70.61;98611.69;4389280;32;32011;-86
2023/01/16 09:36:01;;;;;;;1.45;1.40;;;;;;;7.63;70.34;98594.44;4380254;32;33285;-85
2023/01/16 09:38:29;;;;;;;2.60;1.90;;;;;;;7.59;70.37;98587.62;4388616;32;33279;-85
2023/01/16 09:40:58;;;;;;;0.98;0.98;;;;;;;7.64;70.25;98587.41;4374395;32;31575;-85
2023/01/16 09:43:37;;;;;;;2.83;2.20;;;;;;;7.51;70.46;98584.56;4388838;32;32948;-85
2023/01/16 09:46:17;;;;;;;2.42;2.25;;;;;;;7.90;69.36;98571.16;4389277;32;31694;-85
2023/01/16 09:48:59;;;;;;;1.10;1.00;;;;;;;7.30;71.19;98562.84;4379416;32;32618;-85
2023/01/16 09:51:39;;;;;;;3.35;2.05;;;;;;;7.60;70.36;98557.00;4387780;32;33432;-85
2023/01/16 09:59:51;;;;;;;1.37;1.33;;;;;;;7.76;69.96;98547.38;4391054;32;32739;-85
2023/01/16 10:02:32;;;;;;;1.15;1.05;;;;;;;7.33;71.52;98544.34;4398314;32;32902;-83
2023/01/16 10:05:04;;;;;;;1.25;1.25;;;;;;;7.98;69.46;98530.50;4397146;32;31419;-84
2023/01/16 10:07:49;;;;;;;1.58;1.50;;;;;;;7.47;70.65;98529.66;4381960;32;33366;-84
2023/01/16 10:10:39;;;;;;;5.82;4.18;;;;;;;7.81;69.50;98524.34;4405517;32;33822;-84
2023/01/16 10:13:28;;;;;;;2.35;2.25;;;;;;;7.47;70.62;98516.53;4396090;32;33576;-84
2023/01/16 10:16:36;;;;;;;2.22;2.03;;;;;;;7.23;72.12;98513.38;4410256;32;33687;-84
2023/01/16 10:19:26;;;;;;;2.17;1.55;;;;;;;7.54;70.57;98499.50;4391058;32;33315;-84
2023/01/16 10:22:33;;;;;;;2.42;2.28;;;;;;;7.54;70.51;98489.84;4400755;32;34159;-84
2023/01/16 10:25:21;;;;;;;1.17;0.55;;;;;;;7.20;71.39;98480.22;4377126;32;31699;-84
2023/01/16 10:28:02;;;;;;;4.35;2.17;;;;;;;7.11;71.77;98481.53;4404399;32;33679;-84
2023/01/16 10:30:44;;;;;;;0.90;0.90;;;;;;;7.67;70.09;98467.25;4398417;32;34059;-84
2023/01/16 10:33:34;;;;;;;1.27;1.20;;;;;;;7.31;71.32;98474.44;4397595;32;34528;-84
2023/01/16 10:36:15;;;;;;;1.33;1.17;;;;;;;7.24;71.19;98470.44;4389032;32;32242;-84
2023/01/16 10:38:51;;;;;;;7.00;1.45;;;;;;;7.33;71.19;98455.06;4399030;32;31346;-84
2023/01/16 10:50:01;;;;;;;1.92;1.70;;;;;;;7.37;71.19;98426.88;4404493;32;33635;-84
2023/01/16 10:52:29;;;;;;;2.85;2.53;;;;;;;7.43;71.45;98422.13;4396510;32;30741;-84
2023/01/16 10:54:58;;;;;;;1.58;1.12;;;;;;;7.31;71.71;98417.53;4401861;32;34402;-84
2023/01/16 10:57:27;;;;;;;2.45;2.22;;;;;;;7.51;71.08;98399.87;4407235;32;32243;-84
2023/01/16 11:00:07;;;;;;;1.95;1.83;;;;;;;7.19;72.06;98399.78;4384553;32;32803;-83
2023/01/16 11:02:40;;;;;;;3.03;2.83;;;;;;;7.60;70.91;98396.75;4409841;32;33572;-84
2023/01/16 11:05:31;;;;;;;4.53;2.45;;;;;;;7.36;71.78;98394.50;4396836;32;34200;-84
2023/01/16 11:08:07;;;;;;;3.67;3.47;;;;;;;7.68;70.46;98377.00;4410335;32;33312;-84
2023/01/16 11:10:34;;;;;;;3.35;2.87;;;;;;;7.62;70.46;98373.88;4395761;32;33886;-84
2023/01/16 11:19:24;;;;;;;0.65;0.65;;;;;;;7.30;71.71;98357.22;4418695;32;34225;-84
2023/01/16 11:22:10;;;;;;;3.40;3.12;;;;;;;7.35;71.86;98353.41;4395869;32;33758;-84
2023/01/16 11:24:41;;;;;;;2.00;1.90;;;;;;;7.58;71.75;98349.53;4411070;32;33615;-84
2023/01/16 11:27:17;;;;;;;2.75;2.20;;;;;;;7.03;73.25;98335.91;4398764;32;33359;-85
2023/01/16 11:29:46;;;;;;;0.52;0.52;;;;;;;7.46;72.17;98336.25;4398444;32;31743;-85
2023/01/16 11:32:14;;;;;;;3.30;2.20;;;;;;;7.48;72.12;98337.84;4398586;32;33779;-84
2023/01/16 11:34:46;;;;;;;1.95;1.87;;;;;;;7.86;70.96;98322.59;4396973;32;34743;-85
2023/01/16 11:37:16;;;;;;;2.72;2.17;;;;;;;7.19;72.75;98321.03;4386267;32;33192;-85
2023/01/16 11:39:48;;;;;;;1.40;1.33;;;;;;;7.33;72.38;98302.75;4395906;32;33167;-84
2023/01/16 11:48:22;;;;;;;1.87;1.58;;;;;;;7.18;72.84;98300.97;4398079;32;33871;-84
2023/01/16 11:50:52;;;;;;;2.87;2.67;;;;;;;7.45;71.96;98290.72;4409382;32;33310;-84
2023/01/16 11:53:20;;;;;;;2.58;2.40;;;;;;;7.33;72.17;98281.75;4400306;32;34533;-85
2023/01/16 11:56:11;;;;;;;0.95;0.95;;;;;;;7.01;73.18;98285.28;4381586;32;33498;-84
2023/01/16 11:59:06;;;;;;;5.45;2.30;;;;;;;7.75;70.60;98271.59;4407375;32;33848;-84
2023/01/16 12:02:18;;;;;;;0.85;0.85;;;;;;;7.39;71.96;98263.03;4374771;32;32620;-84
2023/01/16 12:08:05;;;;;;;5.80;3.12;;;;;;;7.22;72.39;98239.50;4395661;32;32543;-84
2023/01/16 12:10:44;;;;;;;;;;;;;;;7.23;72.76;98233.31;4392971;32;34250;-84
2023/01/16 12:16:01;;;;;;;3.37;2.20;;;;;;;7.79;70.69;98216.16;4395577;32;33757;-83
2023/01/16 12:19:01;;;;;;;1.15;1.15;;;;;;;7.96;69.88;98208.09;4392318;32;34163;-83
2023/01/16 12:21:45;;;;;;;1.25;1.25;;;;;;;7.49;71.71;98197.72;4393515;32;33143;-84
2023/01/16 12:24:18;;;;;;;2.80;2.00;;;;;;;7.52;71.93;98191.44;4393286;32;32949;-84
2023/01/16 12:27:16;;;;;;;1.85;1.75;;;;;;;7.41;72.11;98179.78;4394046;32;34150;-83
2023/01/16 12:30:09;;;;;;;2.75;2.55;;;;;;;7.46;72.24;98186.56;4392807;32;33999;-84
2023/01/16 12:32:59;;;;;;;3.40;2.87;;;;;;;7.54;72.09;98176.44;4393241;32;33691;-84
2023/01/16 12:35:37;;;;;;;2.83;2.65;;;;;;;7.57;71.93;98173.66;4407161;32;32254;-84
2023/01/16 12:38:17;;;;;;;1.80;1.70;;;;;;;7.54;71.87;98165.94;4380654;32;33845;-84
2023/01/16 12:40:50;;;;;;;1.25;1.20;;;;;;;7.07;73.52;98164.22;4379595;32;34065;-84
2023/01/16 12:43:19;;;;;;;5.70;4.95;;;;;;;6.82;74.93;98159.47;4374204;32;32898;-84
2023/01/16 12:46:15;;;;;;;1.90;1.80;;;;;;;7.02;73.83;98156.59;4387380;32;33348;-85
2023/01/16 12:48:49;;;;;;;1.65;1.55;;;;;;;6.49;76.14;98156.87;4386343;32;34517;-84
2023/01/16 12:51:23;;;;;;;1.77;1.67;;;;;;;6.98;74.61;98151.59;4406886;32;34952;-84
2023/01/16 12:54:00;;;;;;;2.20;2.00;;;;;;;7.14;73.94;98139.31;4405105;32;33947;-84
2023/01/16 12:56:49;;;;;;;3.95;2.15;;;;;;;7.25;73.18;98142.19;4380071;32;33349;-84
2023/01/16 12:59:21;;;;;;;5.60;4.15;;;;;;;7.15;73.59;98136.59;4404444;32;34057;-84
2023/01/16 13:02:12;;;;;;;1.00;1.00;;;;;;;7.03;74.80;98136.47;4415414;32;34042;-84
2023/01/16 13:04:51;;;;;;;5.30;3.40;;;;;;;7.45;72.66;98127.91;4399576;32;32706;-84
2023/01/16 13:07:19;;;;;;;4.10;3.70;;;;;;;7.51;72.29;98118.84;4393688;32;30997;-84